Time;durP1;ratioP1;P1;durP2;ratioP2;P2;SDS_P1;SDS_P2;PMS_P1;PMS_P2;Temp;Humidity;BMP_temperature;BMP_pressure;BME280_temperature;BME280_humidity;BME280_pressure;Samples;Min_cycle;Max_cycle;Signal;HPM_P1;HPM_P2
2021/10/07 00:01:52;;;;;;;5.75;4.40;;;9.90;95.70;;;;;;4773789;30;20079;-83
2021/10/07 00:04:18;;;;;;;6.18;4.38;;;9.90;95.80;;;;;;4776517;29;20087;-83
2021/10/07 00:06:44;;;;;;;5.90;4.45;;;9.90;95.80;;;;;;4775250;29;20648;-83
2021/10/07 00:09:09;;;;;;;6.13;4.60;;;9.90;95.70;;;;;;4776773;29;20051;-82
2021/10/07 00:11:36;;;;;;;6.68;4.68;;;9.90;95.80;;;;;;4775239;29;20429;-83
2021/10/07 00:14:03;;;;;;;6.28;4.40;;;9.80;95.90;;;;;;4777006;29;20051;-83
2021/10/07 00:16:29;;;;;;;5.95;4.68;;;9.80;96.00;;;;;;4779324;30;20055;-83
2021/10/07 00:18:55;;;;;;;8.50;4.50;;;9.80;95.90;;;;;;4775911;29;20138;-82
2021/10/07 00:21:21;;;;;;;6.45;4.60;;;9.80;95.90;;;;;;4781503;29;20137;-83
2021/10/07 00:24:29;;;;;;;6.25;3.92;;;9.80;95.90;;;;;;4774814;29;20513;-83
2021/10/07 00:26:43;;;;;;;6.07;3.80;;;9.70;95.80;;;;;;4768188;29;20062;-83
2021/10/07 00:29:25;;;;;;;5.57;4.05;;;9.70;95.60;;;;;;4774604;29;20055;-84
2021/10/07 00:31:55;;;;;;;6.47;4.20;;;9.70;95.70;;;;;;4773606;30;20058;-83
2021/10/07 00:35:08;;;;;;;5.60;4.25;;;9.60;95.70;;;;;;4772804;30;20051;-83
2021/10/07 00:39:35;;;;;;;5.68;4.07;;;9.60;95.80;;;;;;4786701;30;20059;-83
2021/10/07 00:42:01;;;;;;;5.72;4.00;;;9.60;95.80;;;;;;4773242;30;20133;-83
2021/10/07 00:44:31;;;;;;;5.45;4.28;;;9.60;95.80;;;;;;4772334;30;20083;-83
2021/10/07 00:47:00;;;;;;;5.85;4.15;;;9.50;95.90;;;;;;4771707;30;20397;-83
2021/10/07 00:49:28;;;;;;;5.07;3.90;;;9.50;95.90;;;;;;4771943;30;20058;-84
2021/10/07 00:51:53;;;;;;;6.07;4.03;;;9.50;96.00;;;;;;4773388;30;20058;-83
2021/10/07 00:54:22;;;;;;;5.22;3.85;;;9.50;95.90;;;;;;4777102;29;20090;-83
2021/10/07 00:56:49;;;;;;;5.55;3.97;;;9.50;95.90;;;;;;4779635;29;20547;-83
2021/10/07 00:59:15;;;;;;;6.40;4.15;;;9.50;95.80;;;;;;4776921;29;20061;-84
2021/10/07 01:01:41;;;;;;;5.78;4.00;;;9.50;95.90;;;;;;4771845;30;20055;-83
2021/10/07 01:04:08;;;;;;;5.50;4.13;;;9.40;95.90;;;;;;4787394;30;20051;-83
2021/10/07 01:06:33;;;;;;;5.15;3.97;;;9.40;96.00;;;;;;4772171;29;20039;-83
2021/10/07 01:09:00;;;;;;;6.07;3.92;;;9.40;95.90;;;;;;4774475;29;20111;-84
2021/10/07 01:11:26;;;;;;;5.75;4.18;;;9.40;95.90;;;;;;4790413;29;20057;-83
2021/10/07 01:13:52;;;;;;;5.88;4.25;;;9.30;96.00;;;;;;4772980;30;20035;-83
2021/10/07 01:16:18;;;;;;;5.93;3.92;;;9.30;96.00;;;;;;4775068;29;20103;-83
2021/10/07 01:18:44;;;;;;;6.00;4.28;;;9.30;96.00;;;;;;4782773;29;20043;-83
2021/10/07 01:21:12;;;;;;;7.88;3.83;;;9.30;96.00;;;;;;4773136;30;20047;-83
2021/10/07 01:23:39;;;;;;;5.80;4.10;;;9.30;96.00;;;;;;4770980;30;20054;-83
2021/10/07 01:26:07;;;;;;;6.63;4.07;;;9.20;95.90;;;;;;4772044;29;20055;-83
2021/10/07 01:28:33;;;;;;;5.53;3.78;;;9.20;95.80;;;;;;4775233;29;20062;-83
2021/10/07 01:30:58;;;;;;;5.70;3.80;;;9.20;95.80;;;;;;4787019;29;20145;-83
2021/10/07 01:33:27;;;;;;;5.40;3.80;;;9.20;95.90;;;;;;4786663;29;20140;-83
2021/10/07 01:35:52;;;;;;;5.32;3.55;;;9.10;96.30;;;;;;4772221;29;20511;-83
2021/10/07 01:38:18;;;;;;;5.00;3.45;;;9.10;96.00;;;;;;4782745;29;20089;-84
2021/10/07 01:40:43;;;;;;;5.70;3.92;;;9.10;95.80;;;;;;4775557;29;20054;-83
2021/10/07 01:43:09;;;;;;;4.60;3.20;;;9.10;95.90;;;;;;4776572;29;20046;-83
2021/10/07 01:45:35;;;;;;;5.10;3.53;;;9.10;95.90;;;;;;4772189;30;20066;-83
2021/10/07 01:48:00;;;;;;;4.88;3.05;;;9.00;96.00;;;;;;4772532;30;20040;-84
2021/10/07 01:50:26;;;;;;;6.47;3.30;;;9.00;96.00;;;;;;4771302;30;20146;-83
2021/10/07 01:52:51;;;;;;;4.85;3.17;;;9.00;96.00;;;;;;4774884;29;20176;-83
2021/10/07 01:55:17;;;;;;;4.50;2.95;;;9.00;95.90;;;;;;4774161;29;21081;-83
2021/10/07 01:57:42;;;;;;;4.63;3.05;;;9.00;95.90;;;;;;4770680;29;20050;-83
2021/10/07 02:00:10;;;;;;;4.72;3.10;;;8.90;95.70;;;;;;4774838;29;20404;-83
2021/10/07 02:02:35;;;;;;;4.85;3.13;;;8.90;95.70;;;;;;4771814;29;20061;-83
2021/10/07 02:05:01;;;;;;;5.18;3.40;;;8.90;95.80;;;;;;4771778;29;20054;-83
2021/10/07 02:07:27;;;;;;;4.85;3.10;;;8.90;95.90;;;;;;4777157;29;20043;-83
2021/10/07 02:09:52;;;;;;;4.85;3.20;;;8.90;96.00;;;;;;4775205;29;20129;-83
2021/10/07 02:12:18;;;;;;;4.53;2.85;;;8.80;96.00;;;;;;4774668;29;20050;-83
2021/10/07 02:14:43;;;;;;;4.95;2.67;;;8.80;96.10;;;;;;4783366;29;20053;-83
2021/10/07 02:17:10;;;;;;;4.30;3.00;;;8.80;96.00;;;;;;4790268;29;20442;-83
2021/10/07 02:19:35;;;;;;;4.43;2.90;;;8.80;96.00;;;;;;4785075;29;20064;-83
2021/10/07 02:22:03;;;;;;;4.65;3.05;;;8.80;96.00;;;;;;4771837;29;20055;-83
2021/10/07 02:24:28;;;;;;;4.32;2.75;;;8.80;96.10;;;;;;4771254;30;20043;-83
2021/10/07 02:26:54;;;;;;;6.03;3.00;;;8.80;96.10;;;;;;4771070;30;20053;-83
2021/10/07 02:29:19;;;;;;;4.88;2.60;;;8.70;96.00;;;;;;4772263;29;20076;-83
2021/10/07 02:31:45;;;;;;;4.93;3.03;;;8.70;96.10;;;;;;4774889;29;20043;-83
2021/10/07 02:34:11;;;;;;;4.30;2.90;;;8.70;96.10;;;;;;4773557;29;20051;-83
2021/10/07 02:36:36;;;;;;;4.78;2.75;;;8.70;96.20;;;;;;4781584;29;20493;-83
2021/10/07 02:39:03;;;;;;;6.15;3.28;;;8.70;96.20;;;;;;4782881;29;20051;-83
2021/10/07 02:41:30;;;;;;;4.80;2.97;;;8.70;96.20;;;;;;4770765;29;20562;-83
2021/10/07 02:43:56;;;;;;;4.20;2.60;;;8.60;96.20;;;;;;4771447;30;20055;-83
2021/10/07 02:46:22;;;;;;;4.03;2.60;;;8.60;96.20;;;;;;4770832;29;20097;-83
2021/10/07 02:48:47;;;;;;;4.30;2.50;;;8.60;96.10;;;;;;4789486;29;20061;-83
2021/10/07 02:51:13;;;;;;;4.43;2.70;;;8.60;96.40;;;;;;4775347;30;20051;-84
2021/10/07 02:53:39;;;;;;;4.07;2.63;;;8.50;96.40;;;;;;4770333;29;20047;-83
2021/10/07 02:56:05;;;;;;;4.30;2.58;;;8.60;96.10;;;;;;4774026;29;20402;-84
2021/10/07 02:58:32;;;;;;;3.63;2.35;;;8.50;96.00;;;;;;4772400;30;20129;-83
2021/10/07 03:00:58;;;;;;;3.90;2.50;;;8.50;96.00;;;;;;4787080;29;20059;-84
2021/10/07 03:03:24;;;;;;;4.72;2.80;;;8.50;96.00;;;;;;4771058;29;20067;-83
2021/10/07 03:05:49;;;;;;;4.05;2.70;;;8.50;96.00;;;;;;4773715;29;20070;-84
2021/10/07 03:08:15;;;;;;;4.03;2.65;;;8.50;96.10;;;;;;4787228;29;20063;-84
2021/10/07 03:10:40;;;;;;;3.83;2.60;;;8.40;96.10;;;;;;4784258;29;20035;-83
2021/10/07 03:13:06;;;;;;;4.13;2.63;;;8.40;96.20;;;;;;4780082;29;20051;-84
2021/10/07 03:15:31;;;;;;;4.00;2.50;;;8.40;96.20;;;;;;4788663;29;20129;-84
2021/10/07 03:17:57;;;;;;;4.47;2.70;;;8.40;96.20;;;;;;4780509;30;20497;-84
2021/10/07 03:20:23;;;;;;;3.85;2.42;;;8.40;96.20;;;;;;4774486;30;20401;-84
2021/10/07 03:22:48;;;;;;;4.20;2.45;;;8.40;96.00;;;;;;4774401;30;20493;-84
2021/10/07 03:25:14;;;;;;;4.57;3.00;;;8.40;95.90;;;;;;4777728;29;20051;-84
2021/10/07 03:27:40;;;;;;;3.60;2.30;;;8.30;96.00;;;;;;4783002;30;20055;-84
2021/10/07 03:30:07;;;;;;;4.32;2.83;;;8.30;96.00;;;;;;4774124;30;20047;-84
2021/10/07 03:32:32;;;;;;;4.30;2.60;;;8.30;95.90;;;;;;4774148;30;20482;-84
2021/10/07 03:34:58;;;;;;;5.75;3.10;;;8.30;95.90;;;;;;4774799;29;20097;-84
2021/10/07 03:37:26;;;;;;;3.90;2.60;;;8.30;96.00;;;;;;4776851;29;20045;-84
2021/10/07 03:39:52;;;;;;;4.00;2.63;;;8.30;96.00;;;;;;4781471;29;20463;-84
2021/10/07 03:42:17;;;;;;;4.10;2.78;;;8.20;96.00;;;;;;4774687;29;20051;-84
2021/10/07 03:44:46;;;;;;;3.75;2.53;;;8.30;96.20;;;;;;4773095;30;20059;-84
2021/10/07 03:47:14;;;;;;;4.22;2.53;;;8.30;96.20;;;;;;4771025;29;20055;-83
2021/10/07 03:49:39;;;;;;;4.22;2.80;;;8.20;96.00;;;;;;4773346;29;20051;-83
2021/10/07 03:52:05;;;;;;;4.32;2.90;;;8.30;96.30;;;;;;4776198;29;20127;-84
2021/10/07 03:54:31;;;;;;;4.32;2.97;;;8.20;95.90;;;;;;4784416;29;20058;-84
2021/10/07 03:56:56;;;;;;;4.47;3.00;;;8.20;95.90;;;;;;4778117;29;20452;-83
2021/10/07 03:59:22;;;;;;;5.45;3.25;;;8.20;95.90;;;;;;4792408;29;20055;-83
2021/10/07 04:01:47;;;;;;;5.03;3.08;;;8.20;95.90;;;;;;4778903;29;20092;-82
2021/10/07 04:04:16;;;;;;;5.45;3.50;;;8.20;95.90;;;;;;4772832;30;20059;-82
2021/10/07 04:06:41;;;;;;;5.25;3.60;;;8.20;95.90;;;;;;4773808;29;20126;-82
2021/10/07 04:09:07;;;;;;;4.40;3.08;;;8.30;95.90;;;;;;4774037;30;20047;-82
2021/10/07 04:11:32;;;;;;;5.10;3.60;;;8.20;95.90;;;;;;4775420;29;20505;-82
2021/10/07 04:13:58;;;;;;;5.25;3.88;;;8.20;95.80;;;;;;4766988;29;20145;-82
2021/10/07 04:16:26;;;;;;;5.38;3.53;;;8.30;95.80;;;;;;4777829;30;20104;-82
2021/10/07 04:18:52;;;;;;;5.07;3.70;;;8.30;95.90;;;;;;4775445;29;20054;-82
2021/10/07 04:21:18;;;;;;;5.65;4.15;;;8.30;95.90;;;;;;4784575;29;20043;-83
2021/10/07 04:23:43;;;;;;;5.55;4.53;;;8.30;95.80;;;;;;4775982;29;20058;-83
2021/10/07 04:26:09;;;;;;;5.60;4.13;;;8.30;95.90;;;;;;4779690;29;20466;-82
2021/10/07 04:28:35;;;;;;;5.32;4.13;;;8.30;95.90;;;;;;4776152;29;20054;-82
2021/10/07 04:31:02;;;;;;;6.00;4.28;;;8.30;96.00;;;;;;4791573;29;20074;-82
2021/10/07 04:33:27;;;;;;;7.20;4.55;;;8.30;96.00;;;;;;4775297;29;20043;-82
2021/10/07 04:35:53;;;;;;;19.48;5.45;;;8.30;95.90;;;;;;4773717;29;20053;-82
2021/10/07 04:38:19;;;;;;;7.00;4.50;;;8.30;95.80;;;;;;4785203;29;20047;-82
2021/10/07 04:40:44;;;;;;;6.43;4.47;;;8.30;95.90;;;;;;4790823;29;20086;-83
2021/10/07 04:43:10;;;;;;;5.95;4.63;;;8.30;95.80;;;;;;4777567;29;20096;-83
2021/10/07 04:45:35;;;;;;;5.85;4.22;;;8.30;95.90;;;;;;4807466;29;20109;-82
2021/10/07 04:48:01;;;;;;;6.13;4.88;;;8.30;95.80;;;;;;4777189;29;20108;-83
2021/10/07 04:50:27;;;;;;;6.38;4.57;;;8.30;95.80;;;;;;4775442;29;20046;-82
2021/10/07 04:52:52;;;;;;;5.60;4.30;;;8.30;95.90;;;;;;4777039;29;20063;-82
2021/10/07 04:55:18;;;;;;;5.93;4.65;;;8.30;95.90;;;;;;4776184;29;20077;-82
2021/10/07 04:57:43;;;;;;;7.25;4.80;;;8.30;95.90;;;;;;4778932;30;20151;-82
2021/10/07 05:00:10;;;;;;;5.90;4.60;;;8.30;95.90;;;;;;4771673;30;20055;-82
2021/10/07 05:02:36;;;;;;;5.82;4.53;;;8.30;95.90;;;;;;4800480;29;20047;-82
2021/10/07 05:05:07;;;;;;;6.20;4.88;;;8.30;95.80;;;;;;4778416;29;20062;-82
2021/10/07 05:07:33;;;;;;;6.00;4.60;;;8.30;95.80;;;;;;4780872;29;20054;-82
2021/10/07 05:09:58;;;;;;;6.20;4.50;;;8.30;95.80;;;;;;4772794;30;20055;-82
2021/10/07 05:12:24;;;;;;;6.13;4.65;;;8.30;95.80;;;;;;4772561;30;20395;-82
2021/10/07 05:14:52;;;;;;;5.93;4.55;;;8.30;95.80;;;;;;4774821;29;20432;-82
2021/10/07 05:17:18;;;;;;;6.38;4.80;;;8.30;95.90;;;;;;4783702;30;20056;-81
2021/10/07 05:19:43;;;;;;;6.68;4.65;;;8.30;95.90;;;;;;4770668;30;20047;-82
2021/10/07 05:22:09;;;;;;;5.75;4.30;;;8.30;95.80;;;;;;4774981;29;20115;-82
2021/10/07 05:24:35;;;;;;;5.60;4.40;;;8.30;95.80;;;;;;4780836;30;20148;-82
2021/10/07 05:27:00;;;;;;;6.57;4.72;;;8.40;95.80;;;;;;4773220;30;20043;-82
2021/10/07 05:29:26;;;;;;;6.15;4.95;;;8.40;95.80;;;;;;4770593;30;20058;-81
2021/10/07 05:31:51;;;;;;;8.93;4.80;;;8.40;95.80;;;;;;4774716;29;20043;-82
2021/10/07 05:34:17;;;;;;;6.70;4.38;;;8.40;95.90;;;;;;4784577;30;20043;-84
2021/10/07 05:36:43;;;;;;;6.70;5.00;;;8.40;95.90;;;;;;4771566;30;20047;-83
2021/10/07 05:39:09;;;;;;;6.78;4.55;;;8.40;95.90;;;;;;4772664;30;20047;-83
2021/10/07 05:41:35;;;;;;;6.35;4.60;;;8.40;96.00;;;;;;4771450;30;20055;-83
2021/10/07 05:44:00;;;;;;;5.78;4.38;;;8.40;95.90;;;;;;4774024;29;20050;-83
2021/10/07 05:46:26;;;;;;;6.70;4.63;;;8.40;95.80;;;;;;4778148;30;20044;-82
2021/10/07 05:48:51;;;;;;;5.97;4.78;;;8.40;95.80;;;;;;4772539;29;20053;-82
2021/10/07 05:51:18;;;;;;;5.78;4.28;;;8.40;95.80;;;;;;4772876;30;20133;-82
2021/10/07 05:53:44;;;;;;;6.40;4.60;;;8.40;95.90;;;;;;4772088;30;20063;-82
2021/10/07 05:56:12;;;;;;;7.85;4.80;;;8.40;95.80;;;;;;4770685;30;20101;-81
2021/10/07 05:58:37;;;;;;;10.85;5.07;;;8.50;95.70;;;;;;4773704;29;20039;-82
2021/10/07 06:01:03;;;;;;;7.82;4.95;;;8.50;95.90;;;;;;4772744;29;20063;-82
2021/10/07 06:03:28;;;;;;;6.45;4.75;;;8.50;95.80;;;;;;4773668;29;20062;-82
2021/10/07 06:05:54;;;;;;;6.47;4.50;;;8.50;95.90;;;;;;4774386;30;20043;-84
2021/10/07 06:08:19;;;;;;;5.97;4.40;;;8.50;95.80;;;;;;4772049;30;20055;-84
2021/10/07 06:10:45;;;;;;;5.97;4.20;;;8.50;95.70;;;;;;4771193;30;20062;-84
2021/10/07 06:13:11;;;;;;;6.20;4.68;;;8.50;95.80;;;;;;4771236;30;20062;-83
2021/10/07 06:15:36;;;;;;;5.82;4.22;;;8.50;95.80;;;;;;4771151;29;20036;-83
2021/10/07 06:18:02;;;;;;;5.95;4.43;;;8.50;95.80;;;;;;4770719;30;20058;-84
2021/10/07 06:22:53;;;;;;;7.57;4.93;;;8.50;95.80;;;;;;4774994;29;20051;-84
2021/10/07 06:25:25;;;;;;;6.05;4.57;;;8.50;95.80;;;;;;4800840;24;20063;-83
2021/10/07 06:27:52;;;;;;;6.70;4.30;;;8.50;95.80;;;;;;4788965;29;20111;-83
2021/10/07 06:30:18;;;;;;;6.15;4.70;;;8.50;95.80;;;;;;4773028;29;20735;-83
2021/10/07 06:32:44;;;;;;;6.85;5.13;;;8.50;95.80;;;;;;4788482;29;20051;-83
2021/10/07 06:35:11;;;;;;;6.00;4.22;;;8.50;95.90;;;;;;4787802;29;20043;-82
2021/10/07 06:37:37;;;;;;;6.05;4.60;;;8.60;95.90;;;;;;4787553;29;20417;-83
2021/10/07 06:40:04;;;;;;;6.00;4.53;;;8.60;95.80;;;;;;4791972;29;20050;-82
2021/10/07 06:42:29;;;;;;;6.07;4.57;;;8.60;95.90;;;;;;4793555;29;20112;-82
2021/10/07 06:44:55;;;;;;;5.93;4.35;;;8.60;95.80;;;;;;4787460;29;20059;-82
2021/10/07 06:47:21;;;;;;;7.70;4.53;;;8.60;95.80;;;;;;4784653;29;20096;-82
2021/10/07 06:49:46;;;;;;;5.88;4.30;;;8.60;95.70;;;;;;4772799;30;20055;-82
2021/10/07 06:52:12;;;;;;;6.28;4.63;;;8.60;95.80;;;;;;4779208;29;20104;-82
2021/10/07 06:54:37;;;;;;;6.50;4.97;;;8.60;95.70;;;;;;4787355;29;20086;-82
2021/10/07 06:57:03;;;;;;;6.13;4.43;;;8.60;95.70;;;;;;4792497;29;20481;-82
2021/10/07 06:59:28;;;;;;;6.88;4.75;;;8.70;95.80;;;;;;4785613;29;20069;-82
2021/10/07 07:01:54;;;;;;;6.05;4.30;;;8.70;95.80;;;;;;4779070;29;20047;-81
2021/10/07 07:04:19;;;;;;;6.15;4.70;;;8.70;95.90;;;;;;4787445;29;20082;-81
2021/10/07 07:06:45;;;;;;;6.03;4.32;;;8.70;95.90;;;;;;4786759;29;20043;-81
2021/10/07 07:09:12;;;;;;;6.40;4.13;;;8.70;95.80;;;;;;4779786;29;20047;-81
2021/10/07 07:11:38;;;;;;;5.75;4.35;;;8.80;95.90;;;;;;4774244;29;20497;-81
2021/10/07 07:14:05;;;;;;;7.22;4.97;;;8.80;95.80;;;;;;4787612;29;20453;-81
2021/10/07 07:16:32;;;;;;;5.97;4.20;;;8.80;95.90;;;;;;4788323;29;20055;-82
2021/10/07 07:18:58;;;;;;;6.15;4.55;;;8.80;96.00;;;;;;4779326;29;20500;-81
2021/10/07 07:21:28;;;;;;;6.80;4.57;;;8.80;96.00;;;;;;4787797;29;20075;-81
2021/10/07 07:23:54;;;;;;;6.30;4.18;;;8.90;95.90;;;;;;4787219;29;20058;-82
2021/10/07 07:26:20;;;;;;;6.07;4.60;;;8.90;95.80;;;;;;4787885;29;20051;-82
2021/10/07 07:28:45;;;;;;;6.88;3.97;;;8.90;95.90;;;;;;4787270;29;20047;-81
2021/10/07 07:31:11;;;;;;;5.50;3.88;;;9.00;95.80;;;;;;4788119;29;20462;-82
2021/10/07 07:33:39;;;;;;;5.78;4.15;;;9.00;95.80;;;;;;4788578;29;20392;-81
2021/10/07 07:36:06;;;;;;;8.38;4.38;;;9.00;95.70;;;;;;4787334;29;20050;-82
2021/10/07 07:38:31;;;;;;;6.18;3.72;;;9.00;95.80;;;;;;4773128;29;20492;-82
2021/10/07 07:40:57;;;;;;;9.82;4.25;;;9.00;95.70;;;;;;4802894;29;20053;-82
2021/10/07 07:43:23;;;;;;;21.42;4.47;;;9.00;95.60;;;;;;4786294;29;20043;-82
2021/10/07 07:45:51;;;;;;;8.63;4.00;;;9.10;95.70;;;;;;4788022;29;20139;-82
2021/10/07 07:48:18;;;;;;;5.75;3.80;;;9.10;95.80;;;;;;4784678;29;20042;-82
2021/10/07 07:50:44;;;;;;;13.50;4.30;;;9.10;95.80;;;;;;4793400;29;20054;-82
2021/10/07 07:53:13;;;;;;;6.03;3.85;;;9.10;95.70;;;;;;4791347;29;20072;-82
2021/10/07 07:55:39;;;;;;;5.50;3.88;;;9.10;95.70;;;;;;4780217;29;20125;-82
2021/10/07 07:58:05;;;;;;;6.25;4.20;;;9.20;95.70;;;;;;4787406;29;20049;-82
2021/10/07 08:00:30;;;;;;;5.50;3.95;;;9.20;95.70;;;;;;4789633;29;20047;-81
2021/10/07 08:02:56;;;;;;;23.25;5.10;;;9.20;95.70;;;;;;4793801;29;20090;-81
2021/10/07 08:05:22;;;;;;;6.28;4.20;;;9.20;95.80;;;;;;4791115;29;20057;-81
2021/10/07 08:07:48;;;;;;;5.95;4.00;;;9.30;95.80;;;;;;4791280;29;20412;-82
2021/10/07 08:10:13;;;;;;;6.57;4.38;;;9.30;95.80;;;;;;4790698;29;20100;-82
2021/10/07 08:12:39;;;;;;;6.38;4.20;;;9.30;95.80;;;;;;4797365;29;20042;-81
2021/10/07 08:15:06;;;;;;;63.25;6.57;;;9.40;95.80;;;;;;4781169;29;20067;-81
2021/10/07 08:17:33;;;;;;;34.92;6.60;;;9.40;95.90;;;;;;4789951;29;20046;-81
2021/10/07 08:20:02;;;;;;;10.18;4.68;;;9.50;96.20;;;;;;4790748;29;20082;-83
2021/10/07 08:22:28;;;;;;;24.48;5.35;;;9.50;96.00;;;;;;4790179;29;20053;-83
2021/10/07 08:24:54;;;;;;;30.95;5.32;;;9.50;95.90;;;;;;4785842;29;20075;-82
2021/10/07 08:27:19;;;;;;;20.13;5.07;;;9.60;96.20;;;;;;4791279;29;20054;-83
2021/10/07 08:29:46;;;;;;;11.90;4.90;;;9.60;96.20;;;;;;4785990;29;20055;-83
2021/10/07 08:32:11;;;;;;;47.65;5.65;;;9.60;96.10;;;;;;4795244;29;20078;-82
2021/10/07 08:34:37;;;;;;;8.68;4.55;;;9.60;96.00;;;;;;4798524;29;20082;-82
2021/10/07 08:37:04;;;;;;;6.53;4.35;;;9.70;96.10;;;;;;4800900;29;20050;-81
2021/10/07 08:39:32;;;;;;;8.90;4.80;;;9.70;95.90;;;;;;4790618;29;20497;-82
2021/10/07 08:41:58;;;;;;;42.03;5.50;;;9.70;95.90;;;;;;4791392;29;20054;-81
2021/10/07 08:44:23;;;;;;;25.25;4.45;;;9.80;96.20;;;;;;4791181;29;20050;-81
2021/10/07 08:46:53;;;;;;;9.18;4.28;;;9.80;96.50;;;;;;4790124;29;20051;-81
2021/10/07 08:49:22;;;;;;;49.72;5.38;;;9.90;96.60;;;;;;4789758;29;20089;-81
2021/10/07 08:51:47;;;;;;;8.00;4.25;;;9.90;96.60;;;;;;4783446;29;20054;-81
2021/10/07 08:54:16;;;;;;;6.35;4.15;;;9.90;96.70;;;;;;4789237;29;20050;-81
2021/10/07 08:56:42;;;;;;;23.60;5.03;;;10.00;96.50;;;;;;4796558;29;20057;-81
2021/10/07 08:59:07;;;;;;;7.22;4.38;;;10.00;96.60;;;;;;4789539;29;20059;-81
2021/10/07 09:01:39;;;;;;;88.55;5.28;;;10.00;96.50;;;;;;4788820;29;20115;-82
2021/10/07 09:04:31;;;;;;;48.97;5.78;;;10.00;96.50;;;;;;4790252;29;20583;-82
2021/10/07 09:06:59;;;;;;;23.30;4.38;;;10.10;96.70;;;;;;4786229;29;20058;-82
2021/10/07 09:09:28;;;;;;;66.07;6.53;;;10.10;96.60;;;;;;4789077;29;20121;-81
2021/10/07 09:12:01;;;;;;;24.20;5.35;;;10.10;96.80;;;;;;4779017;29;20049;-81
2021/10/07 09:14:27;;;;;;;6.35;4.40;;;10.20;97.00;;;;;;4785344;29;20051;-81
2021/10/07 09:16:57;;;;;;;7.05;4.28;;;10.20;96.80;;;;;;4790922;29;20058;-81
2021/10/07 09:19:40;;;;;;;46.58;6.20;;;10.20;96.50;;;;;;4789095;29;20125;-81
2021/10/07 09:22:21;;;;;;;8.10;4.55;;;10.30;96.70;;;;;;4788774;29;20058;-81
2021/10/07 09:24:49;;;;;;;6.82;4.40;;;10.30;96.50;;;;;;4789601;29;20455;-81
2021/10/07 09:27:28;;;;;;;14.57;4.22;;;10.30;96.40;;;;;;4788554;29;20055;-81
2021/10/07 09:30:02;;;;;;;6.88;4.25;;;10.30;96.30;;;;;;4786410;29;20129;-81
2021/10/07 09:32:40;;;;;;;9.63;4.85;;;10.30;96.20;;;;;;4789780;29;20050;-81
2021/10/07 09:35:08;;;;;;;44.55;6.57;;;10.40;96.30;;;;;;4789622;29;20051;-81
2021/10/07 09:37:42;;;;;;;56.17;6.57;;;10.40;96.50;;;;;;4789689;29;20107;-81
2021/10/07 09:40:18;;;;;;;15.07;5.75;;;10.50;96.70;;;;;;4785116;29;20062;-81
2021/10/07 09:42:49;;;;;;;32.00;6.00;;;10.50;96.70;;;;;;4780368;29;20051;-81
2021/10/07 09:45:24;;;;;;;28.92;5.72;;;10.60;96.80;;;;;;4788674;29;20468;-79
2021/10/07 09:48:00;;;;;;;7.60;4.50;;;10.60;96.70;;;;;;4784580;30;20047;-81
2021/10/07 09:50:30;;;;;;;25.55;6.00;;;10.70;96.70;;;;;;4802178;29;20050;-81
2021/10/07 09:53:03;;;;;;;9.50;4.95;;;10.70;96.60;;;;;;4793089;29;20518;-81
2021/10/07 09:55:37;;;;;;;21.55;6.65;;;10.70;96.70;;;;;;4786605;29;20112;-81
2021/10/07 09:58:04;;;;;;;7.72;5.00;;;10.80;96.80;;;;;;4788074;29;20057;-81
2021/10/07 10:00:35;;;;;;;6.75;4.28;;;10.80;96.70;;;;;;4789919;29;20054;-82
2021/10/07 10:03:01;;;;;;;10.48;6.50;;;10.80;96.50;;;;;;4787902;29;20129;-83
2021/10/07 10:05:29;;;;;;;9.38;5.78;;;10.90;96.60;;;;;;4786929;29;20142;-83
2021/10/07 10:07:55;;;;;;;7.93;5.30;;;10.90;96.60;;;;;;4790032;29;20403;-83
2021/10/07 10:10:20;;;;;;;18.85;6.97;;;10.90;96.50;;;;;;4789405;29;20051;-83
2021/10/07 10:15:19;;;;;;;7.68;5.18;;;11.00;96.80;;;;;;5084603;24;20062;-82
2021/10/07 10:17:45;;;;;;;7.47;4.80;;;11.00;96.60;;;;;;4812439;29;20050;-80
2021/10/07 10:20:18;;;;;;;8.50;5.20;;;11.10;96.50;;;;;;4810661;29;20136;-80
2021/10/07 10:22:56;;;;;;;20.83;8.48;;;11.10;96.50;;;;;;4804533;29;20154;-80
2021/10/07 10:25:25;;;;;;;10.68;7.57;;;11.10;96.70;;;;;;4802143;29;20054;-81
2021/10/07 10:27:58;;;;;;;10.90;6.63;;;11.20;96.70;;;;;;4798445;29;20439;-81
2021/10/07 10:30:28;;;;;;;12.40;8.13;;;11.20;96.70;;;;;;4795325;29;20054;-81
2021/10/07 10:32:56;;;;;;;12.77;8.27;;;11.30;96.70;;;;;;4818252;29;20539;-81
2021/10/07 10:35:34;;;;;;;13.40;7.97;;;11.30;96.90;;;;;;4802755;29;20051;-81
2021/10/07 10:38:01;;;;;;;11.35;7.07;;;11.40;96.90;;;;;;4801419;29;20074;-81
2021/10/07 10:40:27;;;;;;;10.05;6.70;;;11.40;96.80;;;;;;4807423;29;20046;-80
2021/10/07 10:43:17;;;;;;;22.85;10.02;;;11.40;96.70;;;;;;4801785;29;20050;-81
2021/10/07 10:46:09;;;;;;;16.65;9.02;;;11.50;96.80;;;;;;4790922;29;20137;-80
2021/10/07 10:48:41;;;;;;;10.35;6.80;;;11.50;96.80;;;;;;4798254;29;20088;-79
2021/10/07 10:51:14;;;;;;;11.80;8.32;;;11.50;96.70;;;;;;4802278;29;20042;-81
2021/10/07 10:54:04;;;;;;;8.45;6.13;;;11.50;96.80;;;;;;4800285;29;20047;-81
2021/10/07 10:56:32;;;;;;;10.38;6.20;;;11.60;96.30;;;;;;4805963;29;20480;-82
2021/10/07 10:59:18;;;;;;;10.05;7.07;;;11.60;96.40;;;;;;4792571;29;20073;-81
2021/10/07 11:01:45;;;;;;;17.58;11.95;;;11.60;96.20;;;;;;4789837;29;20236;-82
2021/10/07 11:04:11;;;;;;;15.10;9.70;;;11.60;96.50;;;;;;4793464;29;20130;-82
2021/10/07 11:07:18;;;;;;;13.02;9.20;;;11.70;96.60;;;;;;4802679;29;20503;-81
2021/10/07 11:09:55;;;;;;;11.57;8.85;;;11.70;96.40;;;;;;4776393;29;20708;-81
2021/10/07 11:12:22;;;;;;;11.85;8.93;;;11.80;96.50;;;;;;4788879;29;20096;-81
2021/10/07 11:14:49;;;;;;;13.30;9.38;;;11.80;96.50;;;;;;4791293;29;20062;-81
2021/10/07 11:17:15;;;;;;;12.43;8.57;;;11.80;96.40;;;;;;4798444;29;20130;-80
2021/10/07 11:19:41;;;;;;;17.42;11.85;;;11.80;96.30;;;;;;4804727;29;20070;-81
2021/10/07 11:22:08;;;;;;;17.83;12.23;;;11.90;96.50;;;;;;4796931;29;20043;-80
2021/10/07 11:24:34;;;;;;;13.75;10.55;;;11.90;96.60;;;;;;4798485;29;20139;-80
2021/10/07 11:27:00;;;;;;;16.73;12.15;;;11.90;96.60;;;;;;4789409;29;20137;-80
2021/10/07 11:29:26;;;;;;;16.02;12.43;;;12.00;96.60;;;;;;4793291;29;20073;-81
2021/10/07 11:31:52;;;;;;;14.82;11.00;;;12.00;96.60;;;;;;4789210;29;20050;-80
2021/10/07 11:34:18;;;;;;;16.73;12.43;;;12.00;96.60;;;;;;4795520;29;20051;-81
2021/10/07 11:36:43;;;;;;;17.10;13.00;;;12.00;97.00;;;;;;4792831;29;20050;-80
2021/10/07 11:39:09;;;;;;;14.52;10.32;;;12.00;96.70;;;;;;4802769;29;20042;-81
2021/10/07 11:41:35;;;;;;;14.18;11.02;;;12.10;96.60;;;;;;4794868;29;20047;-80
2021/10/07 11:44:05;;;;;;;16.60;12.18;;;12.10;96.50;;;;;;4792969;29;20071;-81
2021/10/07 11:46:35;;;;;;;14.90;11.30;;;12.10;96.50;;;;;;4800170;29;20074;-81
2021/10/07 11:49:00;;;;;;;15.00;11.35;;;12.20;96.50;;;;;;4796751;29;20052;-81
2021/10/07 11:51:28;;;;;;;17.10;12.93;;;12.20;96.40;;;;;;4801692;29;20128;-81
2021/10/07 11:53:55;;;;;;;16.10;12.10;;;12.20;96.50;;;;;;4806106;29;20051;-81
2021/10/07 11:56:23;;;;;;;14.93;10.98;;;12.20;96.50;;;;;;4812033;29;20077;-82
2021/10/07 11:58:57;;;;;;;15.70;11.77;;;12.30;96.40;;;;;;4814654;29;20135;-82
2021/10/07 12:01:28;;;;;;;12.63;9.50;;;12.30;96.30;;;;;;4791715;29;20065;-82
2021/10/07 12:03:59;;;;;;;14.00;11.25;;;12.30;96.30;;;;;;4784785;29;20079;-82
2021/10/07 12:06:26;;;;;;;12.88;10.52;;;12.30;96.20;;;;;;4792836;29;20051;-82
2021/10/07 12:08:51;;;;;;;19.38;13.23;;;12.30;96.20;;;;;;4792998;29;20110;-83
2021/10/07 12:11:22;;;;;;;20.75;14.32;;;12.30;96.20;;;;;;4792838;29;20074;-83
2021/10/07 12:13:57;;;;;;;17.35;13.35;;;12.40;96.30;;;;;;4792315;29;20060;-83
2021/10/07 12:16:42;;;;;;;16.45;12.43;;;12.40;96.30;;;;;;4797442;29;20066;-83
2021/10/07 12:19:10;;;;;;;23.98;15.82;;;12.40;96.20;;;;;;4798164;29;20054;-84
2021/10/07 12:21:55;;;;;;;24.85;15.30;;;12.40;96.20;;;;;;4801064;29;20050;-84
2021/10/07 12:24:24;;;;;;;17.23;12.70;;;12.40;96.20;;;;;;4807361;29;20104;-84
2021/10/07 12:26:52;;;;;;;19.45;13.75;;;12.40;96.20;;;;;;4796479;29;20046;-82
2021/10/07 12:29:23;;;;;;;14.95;11.25;;;12.50;96.30;;;;;;4808377;29;20042;-83
2021/10/07 12:32:03;;;;;;;14.73;11.30;;;12.50;96.10;;;;;;4793728;29;20090;-81
2021/10/07 12:34:38;;;;;;;13.50;10.07;;;12.50;96.00;;;;;;4791777;29;20055;-82
2021/10/07 12:37:06;;;;;;;19.98;14.43;;;12.50;96.00;;;;;;4800757;29;20049;-81
2021/10/07 12:39:37;;;;;;;19.80;14.45;;;12.50;96.10;;;;;;4795254;29;20047;-82
2021/10/07 12:42:09;;;;;;;19.23;13.57;;;12.60;96.20;;;;;;4799780;29;20141;-81
2021/10/07 12:44:37;;;;;;;23.00;15.95;;;12.60;96.10;;;;;;4802320;29;20046;-81
2021/10/07 12:47:09;;;;;;;13.18;10.05;;;12.60;96.20;;;;;;4802949;29;20047;-82
2021/10/07 12:49:46;;;;;;;24.70;16.02;;;12.60;96.10;;;;;;4808837;29;20074;-82
2021/10/07 12:52:28;;;;;;;17.50;12.43;;;12.60;96.10;;;;;;4790925;29;20099;-82
2021/10/07 12:55:06;;;;;;;16.38;12.80;;;12.60;96.10;;;;;;4792246;29;20047;-81
2021/10/07 12:57:37;;;;;;;15.43;11.77;;;12.60;96.10;;;;;;4819722;29;20391;-84
2021/10/07 13:00:06;;;;;;;22.88;17.33;;;12.60;96.10;;;;;;4816188;29;20064;-83
2021/10/07 13:02:32;;;;;;;20.63;14.80;;;12.60;96.20;;;;;;4808994;29;20057;-81